Time;durP1;ratioP1;P1;durP2;ratioP2;P2;SDS_P1;SDS_P2;PMS_P1;PMS_P2;Temp;Humidity;BMP_temperature;BMP_pressure;BME280_temperature;BME280_humidity;BME280_pressure;Samples;Min_cycle;Max_cycle;Signal;HPM_P1;HPM_P2
2023/06/12 00:00:29;;;;;;;6.47;5.30;;;;;;;21.27;82.12;98835.44;5054430;28;20280;-73
2023/06/12 00:02:57;;;;;;;5.87;5.30;;;;;;;21.27;82.04;98824.66;5054396;28;20221;-72
2023/06/12 00:05:27;;;;;;;5.87;5.30;;;;;;;21.23;82.90;98823.59;5043728;28;20200;-73
2023/06/12 00:07:56;;;;;;;6.13;5.53;;;;;;;21.29;83.29;98822.47;5046958;28;20185;-73
2023/06/12 00:10:25;;;;;;;5.50;5.00;;;;;;;21.32;83.04;98821.94;5053760;28;20196;-73
2023/06/12 00:12:51;;;;;;;5.70;5.30;;;;;;;21.31;83.02;98819.50;5053498;28;20592;-73
2023/06/12 00:15:18;;;;;;;6.03;5.47;;;;;;;21.36;83.21;98816.75;5034537;28;20201;-73
2023/06/12 00:17:45;;;;;;;6.40;5.80;;;;;;;21.39;82.20;98811.59;5034175;28;20193;-72
2023/06/12 00:20:12;;;;;;;6.10;5.60;;;;;;;21.39;82.20;98811.59;5046043;28;20193;-74
2023/06/12 00:22:40;;;;;;;5.80;5.40;;;;;;;21.43;82.67;98817.25;5054066;28;20707;-75
2023/06/12 00:25:07;;;;;;;6.23;5.63;;;;;;;21.47;82.28;98821.78;5054226;28;20203;-72
2023/06/12 00:27:36;;;;;;;5.67;5.37;;;;;;;21.53;82.25;98828.78;5054274;28;20196;-74
2023/06/12 00:30:03;;;;;;;6.50;5.90;;;;;;;21.59;81.38;98824.13;5053823;28;20277;-76
2023/06/12 00:32:30;;;;;;;6.57;5.73;;;;;;;21.53;81.09;98817.97;5040787;28;20759;-75
2023/06/12 00:34:56;;;;;;;6.83;6.17;;;;;;;21.61;81.65;98835.47;5033773;28;20724;-75
2023/06/12 00:37:24;;;;;;;8.57;6.20;;;;;;;21.66;81.29;98838.13;5033744;28;20255;-76
2023/06/12 00:39:51;;;;;;;6.93;5.40;;;;;;;21.69;80.99;98846.50;5033980;28;20233;-75
2023/06/12 00:42:18;;;;;;;6.40;5.03;;;;;;;21.70;81.15;98845.44;5041889;28;20198;-75
2023/06/12 00:44:46;;;;;;;4.83;4.53;;;;;;;21.73;81.21;98844.88;5051958;28;20200;-74
2023/06/12 00:47:14;;;;;;;9.03;5.40;;;;;;;21.75;81.13;98842.69;5054037;28;20200;-74
2023/06/12 00:49:42;;;;;;;6.70;5.33;;;;;;;21.74;80.77;98842.97;5040980;28;20227;-74
2023/06/12 00:52:12;;;;;;;10.17;5.50;;;;;;;21.75;80.46;98848.09;5032805;28;20620;-73
2023/06/12 00:54:39;;;;;;;5.80;5.23;;;;;;;21.75;80.78;98842.69;5046129;28;20223;-74
2023/06/12 00:57:07;;;;;;;5.70;4.93;;;;;;;21.75;80.65;98839.97;5053684;28;20197;-74
2023/06/12 00:59:35;;;;;;;5.23;4.80;;;;;;;21.75;80.82;98847.28;5053688;28;20232;-73
2023/06/12 01:02:06;;;;;;;9.47;5.33;;;;;;;21.73;80.97;98853.00;5048252;28;20280;-73
2023/06/12 01:04:34;;;;;;;6.17;5.47;;;;;;;21.72;80.86;98848.66;5033635;28;20198;-73
2023/06/12 01:07:10;;;;;;;8.50;4.93;;;;;;;21.72;80.76;98856.75;5033494;28;20194;-73
2023/06/12 01:09:44;;;;;;;7.23;5.13;;;;;;;21.71;80.91;98857.03;5033762;28;20215;-73
2023/06/12 01:12:12;;;;;;;5.90;5.40;;;;;;;21.69;81.13;98854.63;5038971;28;20192;-73
2023/06/12 01:14:38;;;;;;;6.77;5.77;;;;;;;21.69;81.29;98853.78;5053525;28;20270;-70
2023/06/12 01:17:07;;;;;;;5.83;5.40;;;;;;;21.67;81.09;98854.06;5053085;28;20254;-70
2023/06/12 01:19:35;;;;;;;5.63;5.20;;;;;;;21.67;81.29;98858.66;5052952;28;20196;-70
2023/06/12 01:22:08;;;;;;;8.37;5.27;;;;;;;21.64;81.29;98854.63;5034636;28;20189;-69
2023/06/12 01:24:53;;;;;;;6.10;5.23;;;;;;;21.64;81.02;98857.31;5033491;28;20209;-70
2023/06/12 01:27:41;;;;;;;5.70;5.30;;;;;;;21.55;81.58;98864.44;5033198;28;20258;-70
2023/06/12 01:30:34;;;;;;;5.37;5.07;;;;;;;21.50;82.08;98867.19;5034380;28;20192;-69
2023/06/12 01:33:07;;;;;;;5.67;4.97;;;;;;;21.48;82.09;98863.94;5052675;28;20726;-70
2023/06/12 01:35:40;;;;;;;5.37;5.07;;;;;;;21.47;82.07;98861.53;5053279;28;20193;-72
2023/06/12 01:38:10;;;;;;;10.37;5.53;;;;;;;21.44;82.28;98857.47;5052596;28;20216;-72
2023/06/12 01:40:39;;;;;;;6.50;5.07;;;;;;;21.34;82.60;98862.97;5052699;28;20728;-72
2023/06/12 01:43:05;;;;;;;6.50;5.90;;;;;;;21.23;82.06;98856.00;5042080;28;20312;-71
2023/06/12 01:45:33;;;;;;;5.90;5.50;;;;;;;21.14;81.75;98856.91;5032874;28;20263;-72
2023/06/12 01:47:59;;;;;;;5.90;5.40;;;;;;;21.03;82.81;98853.44;5032246;28;20251;-71
2023/06/12 01:50:27;;;;;;;6.33;5.83;;;;;;;20.96;83.57;98844.84;5032996;28;20200;-71
2023/06/12 01:52:54;;;;;;;6.47;5.93;;;;;;;20.93;82.36;98852.69;5052626;28;20192;-73
2023/06/12 01:55:21;;;;;;;6.57;5.67;;;;;;;20.87;81.73;98849.19;5052343;28;20687;-73
2023/06/12 01:57:50;;;;;;;6.47;5.90;;;;;;;20.83;83.01;98848.13;5052554;28;20209;-73
2023/06/12 02:00:17;;;;;;;6.73;6.17;;;;;;;20.77;82.21;98851.91;5052488;28;20287;-70
2023/06/12 02:02:43;;;;;;;5.63;5.13;;;;;;;20.66;81.94;98850.34;5032464;28;20189;-70
2023/06/12 02:05:11;;;;;;;6.90;6.23;;;;;;;20.55;82.33;98838.00;5032468;28;20216;-70
2023/06/12 02:07:39;;;;;;;7.03;6.43;;;;;;;20.45;82.67;98848.81;5032238;28;20205;-70
2023/06/12 02:10:07;;;;;;;7.57;6.53;;;;;;;20.28;83.34;98837.53;5042807;28;20200;-72
2023/06/12 02:12:34;;;;;;;6.80;6.17;;;;;;;20.30;84.68;98846.19;5052502;28;20223;-72
2023/06/12 02:15:01;;;;;;;6.37;5.97;;;;;;;20.32;84.23;98846.69;5052062;28;20207;-71
2023/06/12 02:17:29;;;;;;;11.90;6.30;;;;;;;20.29;85.26;98844.53;5032655;28;20225;-72
2023/06/12 02:19:57;;;;;;;7.70;6.43;;;;;;;20.27;84.04;98852.13;5031865;28;20263;-71
2023/06/12 02:22:24;;;;;;;6.97;6.23;;;;;;;20.19;85.05;98855.38;5032313;28;20200;-68
2023/06/12 02:24:52;;;;;;;6.80;6.20;;;;;;;20.25;84.87;98867.75;5032259;28;20221;-68
2023/06/12 02:27:19;;;;;;;7.27;6.60;;;;;;;20.27;84.46;98868.28;5032200;28;20205;-67
2023/06/12 02:29:45;;;;;;;7.30;6.47;;;;;;;20.34;84.52;98874.22;5032122;28;20255;-68
2023/06/12 02:32:13;;;;;;;7.27;6.63;;;;;;;20.31;84.41;98880.16;5032826;28;20194;-68
2023/06/12 02:34:39;;;;;;;7.90;6.10;;;;;;;20.28;86.10;98880.69;5032119;28;20240;-68
2023/06/12 02:37:08;;;;;;;6.60;6.23;;;;;;;20.32;85.22;98884.47;5031777;28;20243;-67
2023/06/12 02:39:35;;;;;;;7.97;6.20;;;;;;;20.43;85.06;98883.38;5031703;28;20646;-68
2023/06/12 02:42:04;;;;;;;8.27;6.40;;;;;;;20.53;84.50;98884.13;5031582;28;20811;-68
2023/06/12 02:44:30;;;;;;;6.90;6.30;;;;;;;20.63;84.30;98888.69;5039910;28;20273;-68
2023/06/12 02:46:59;;;;;;;8.23;6.23;;;;;;;20.72;84.03;98881.66;5051563;28;20626;-68
2023/06/12 02:49:27;;;;;;;9.03;6.23;;;;;;;20.79;84.15;98884.88;5051956;28;20192;-68
2023/06/12 02:51:54;;;;;;;10.47;7.20;;;;;;;20.87;83.50;98891.56;5051814;28;20259;-68
2023/06/12 02:54:24;;;;;;;11.00;6.60;;;;;;;20.90;83.49;98886.41;5055223;28;20201;-68
2023/06/12 02:56:52;;;;;;;15.20;6.73;;;;;;;20.93;83.13;98883.19;5041541;28;20634;-67
2023/06/12 02:59:22;;;;;;;12.13;7.17;;;;;;;20.98;82.87;98893.97;5035649;28;20280;-68
2023/06/12 03:01:48;;;;;;;6.87;6.20;;;;;;;20.90;83.51;98875.63;5035483;28;20189;-67
2023/06/12 03:04:18;;;;;;;8.10;6.33;;;;;;;21.01;83.39;98887.19;5035275;28;20795;-68
2023/06/12 03:06:45;;;;;;;9.07;6.07;;;;;;;20.95;82.48;98883.72;5036270;28;20288;-69
2023/06/12 03:09:15;;;;;;;7.83;5.97;;;;;;;20.97;82.32;98892.38;5049250;28;20196;-67
2023/06/12 03:11:43;;;;;;;10.03;6.80;;;;;;;21.04;81.84;98895.56;5055673;28;20234;-67
2023/06/12 03:14:10;;;;;;;16.37;6.17;;;;;;;21.15;81.67;98897.13;5055338;28;20259;-67
2023/06/12 03:16:38;;;;;;;6.63;5.97;;;;;;;21.32;81.14;98903.00;5048080;28;20251;-68
2023/06/12 03:19:04;;;;;;;7.90;5.73;;;;;;;21.46;80.71;98903.97;5035020;28;20743;-68
2023/06/12 03:21:31;;;;;;;10.27;5.70;;;;;;;21.57;80.25;98902.00;5035464;28;20189;-68
2023/06/12 03:23:58;;;;;;;11.87;6.43;;;;;;;21.64;80.74;98897.88;5035381;28;20217;-68
2023/06/12 03:26:27;;;;;;;12.83;5.53;;;;;;;21.73;79.90;98896.25;5052943;28;20189;-68
2023/06/12 03:28:54;;;;;;;13.73;6.93;;;;;;;21.79;79.24;98903.22;5055439;28;20197;-69
2023/06/12 03:31:24;;;;;;;8.67;6.17;;;;;;;21.81;78.35;98905.63;5054637;28;20730;-68
2023/06/12 03:33:53;;;;;;;10.03;6.00;;;;;;;21.84;78.03;98908.56;5054912;28;20280;-66
2023/06/12 03:36:21;;;;;;;6.70;5.63;;;;;;;21.84;77.66;98899.66;5036422;28;20198;-67
2023/06/12 03:38:47;;;;;;;8.10;5.33;;;;;;;21.87;76.81;98916.13;5034216;28;20196;-70
2023/06/12 03:41:14;;;;;;;7.53;5.37;;;;;;;21.92;75.81;98918.00;5034803;28;20225;-71
2023/06/12 03:43:41;;;;;;;5.53;5.00;;;;;;;21.92;75.74;98907.97;5051664;28;20219;-70
2023/06/12 03:46:07;;;;;;;12.90;5.90;;;;;;;21.91;74.56;98916.34;5054547;28;20190;-71
2023/06/12 03:48:35;;;;;;;6.80;5.30;;;;;;;21.84;74.82;98911.28;5054415;28;20751;-70
2023/06/12 03:51:03;;;;;;;6.53;5.80;;;;;;;21.82;74.83;98918.88;5054423;28;20197;-70
2023/06/12 03:53:29;;;;;;;5.90;5.40;;;;;;;21.82;74.97;98908.06;5037940;28;20194;-70
2023/06/12 03:55:56;;;;;;;10.60;5.20;;;;;;;21.84;74.77;98905.88;5034270;28;20205;-70
2023/06/12 03:58:24;;;;;;;9.70;5.87;;;;;;;21.82;75.11;98912.66;5034465;28;20291;-71
2023/06/12 04:00:51;;;;;;;6.20;5.50;;;;;;;21.80;75.67;98918.34;5031657;28;20186;-71
2023/06/12 04:03:18;;;;;;;11.97;6.80;;;;;;;21.73;75.75;98909.75;5034054;28;20291;-71
2023/06/12 04:05:45;;;;;;;6.40;5.80;;;;;;;21.78;75.51;98912.41;5032884;28;20259;-68
2023/06/12 04:08:13;;;;;;;5.83;5.33;;;;;;;21.91;75.25;98906.34;5031064;28;20194;-71
2023/06/12 04:10:40;;;;;;;20.10;8.50;;;;;;;22.00;75.22;98901.94;5033510;28;20708;-72
2023/06/12 04:13:07;;;;;;;20.90;7.20;;;;;;;22.14;75.50;98902.09;5033930;28;20197;-72
2023/06/12 04:15:33;;;;;;;24.43;7.00;;;;;;;22.22;75.14;98907.69;5033839;28;20562;-71
2023/06/12 04:18:00;;;;;;;6.40;5.67;;;;;;;22.51;74.70;98905.81;5033244;28;20706;-70
2023/06/12 04:20:27;;;;;;;9.93;5.90;;;;;;;23.21;71.45;98915.81;5033868;28;20273;-68
2023/06/12 04:22:56;;;;;;;7.27;5.73;;;;;;;23.63;70.24;98920.34;5033192;28;20189;-68
2023/06/12 04:25:25;;;;;;;6.83;6.03;;;;;;;23.81;69.08;98920.34;5033662;28;20221;-66
2023/06/12 04:27:52;;;;;;;8.13;5.67;;;;;;;24.21;68.03;98925.13;5033262;28;20187;-68
2023/06/12 04:30:21;;;;;;;10.00;5.93;;;;;;;25.17;64.97;98932.25;5032754;28;20256;-67
2023/06/12 04:32:48;;;;;;;15.33;5.87;;;;;;;26.20;60.04;98950.31;5033231;28;20227;-70
2023/06/12 04:35:16;;;;;;;7.47;5.70;;;;;;;27.01;57.05;98947.88;5033645;28;20258;-69
2023/06/12 04:37:43;;;;;;;8.27;5.20;;;;;;;27.85;54.97;98937.47;5030971;28;20272;-72
2023/06/12 04:40:11;;;;;;;5.90;5.33;;;;;;;29.22;50.99;98957.84;5032873;28;20275;-72
2023/06/12 04:42:39;;;;;;;8.00;5.20;;;;;;;30.04;46.33;98938.75;5032999;28;20198;-70
2023/06/12 04:45:08;;;;;;;5.73;5.27;;;;;;;30.44;44.65;98937.06;5032053;28;20213;-72
2023/06/12 04:47:36;;;;;;;14.83;5.03;;;;;;;31.07;44.06;98932.94;5031117;28;20200;-73
2023/06/12 04:50:04;;;;;;;14.67;5.30;;;;;;;31.41;42.05;98927.81;5032861;28;20185;-75
2023/06/12 04:52:32;;;;;;;10.03;5.10;;;;;;;31.83;40.83;98929.09;5033018;28;20194;-75
2023/06/12 04:54:59;;;;;;;6.23;4.87;;;;;;;31.85;40.87;98918.53;5033046;28;20247;-71
2023/06/12 04:57:27;;;;;;;12.70;5.23;;;;;;;31.81;40.40;98909.38;5032836;28;20276;-64
2023/06/12 04:59:55;;;;;;;5.47;4.53;;;;;;;32.14;40.11;98929.16;5034136;28;20189;-64
2023/06/12 05:02:22;;;;;;;14.60;5.37;;;;;;;32.41;39.90;98933.88;5033070;28;20193;-64
2023/06/12 05:04:48;;;;;;;6.17;4.00;;;;;;;32.14;40.18;98933.88;5032935;28;20713;-63
2023/06/12 05:07:16;;;;;;;11.33;5.43;;;;;;;31.72;40.61;98933.44;5032809;28;20594;-64
2023/06/12 05:09:44;;;;;;;12.93;5.40;;;;;;;30.68;42.59;98919.88;5032958;28;20281;-65
2023/06/12 05:12:11;;;;;;;15.90;5.80;;;;;;;29.84;45.80;98927.81;5034155;28;20251;-64
2023/06/12 05:14:38;;;;;;;8.23;5.00;;;;;;;29.33;48.68;98920.78;5032333;28;20201;-64
2023/06/12 05:17:06;;;;;;;11.80;4.60;;;;;;;29.10;50.28;98916.72;5031915;28;20197;-63
2023/06/12 05:19:33;;;;;;;8.20;4.60;;;;;;;28.89;50.52;98913.09;5032625;28;20193;-67
2023/06/12 05:22:00;;;;;;;7.23;5.30;;;;;;;28.57;49.54;98914.53;5032797;28;20198;-68
2023/06/12 05:24:27;;;;;;;9.13;4.43;;;;;;;28.46;50.12;98920.69;5032921;28;20267;-68
2023/06/12 05:26:53;;;;;;;12.23;4.63;;;;;;;28.21;52.55;98918.78;5032520;28;20197;-68
2023/06/12 05:29:20;;;;;;;9.97;4.37;;;;;;;28.31;53.40;98918.44;5032254;28;20688;-68
2023/06/12 05:31:47;;;;;;;7.70;4.63;;;;;;;28.51;52.19;98925.97;5034717;28;20242;-67
2023/06/12 05:34:15;;;;;;;19.07;6.27;;;;;;;28.76;50.24;98920.41;5052668;28;20250;-69
2023/06/12 05:36:41;;;;;;;8.57;4.43;;;;;;;29.39;50.74;98933.09;5052331;28;20258;-70
2023/06/12 05:39:08;;;;;;;4.57;4.03;;;;;;;29.99;47.68;98932.66;5052266;28;20317;-69
2023/06/12 05:41:35;;;;;;;10.97;4.90;;;;;;;29.81;46.79;98937.50;5051616;28;20258;-69
2023/06/12 05:44:03;;;;;;;11.67;5.90;;;;;;;29.87;46.89;98933.41;5031939;28;20566;-68
2023/06/12 05:46:30;;;;;;;8.87;5.30;;;;;;;30.31;46.11;98938.19;5032319;28;20220;-68
2023/06/12 05:48:57;;;;;;;5.50;5.00;;;;;;;30.73;44.97;98934.19;5031762;28;20193;-68
2023/06/12 05:51:25;;;;;;;7.27;4.50;;;;;;;31.43;43.48;98933.72;5027064;28;20259;-67
2023/06/12 05:53:52;;;;;;;5.90;4.40;;;;;;;31.50;42.71;98928.47;5026138;28;20248;-69
2023/06/12 05:56:18;;;;;;;5.60;4.50;;;;;;;31.45;43.19;98928.72;5019592;28;20383;-69
2023/06/12 05:58:45;;;;;;;13.70;4.77;;;;;;;31.57;42.66;98931.44;5012987;28;20230;-72
2023/06/12 06:01:16;;;;;;;5.20;4.37;;;;;;;31.63;41.85;98930.03;5038149;28;20688;-69
2023/06/12 06:03:45;;;;;;;5.40;4.17;;;;;;;32.17;41.12;98928.47;5052659;28;20232;-69
2023/06/12 06:06:13;;;;;;;4.90;4.20;;;;;;;32.12;41.38;98938.91;5034101;28;20622;-70
2023/06/12 06:08:41;;;;;;;5.47;4.80;;;;;;;32.35;39.36;98951.81;5028541;28;20189;-69
2023/06/12 06:11:08;;;;;;;21.50;6.93;;;;;;;32.42;40.16;98940.97;5029179;28;20689;-70
2023/06/12 06:13:35;;;;;;;6.57;4.23;;;;;;;32.57;39.31;98937.44;5030200;28;20193;-68
2023/06/12 06:16:02;;;;;;;33.37;4.47;;;;;;;32.95;38.99;98948.66;5031304;28;20259;-69
2023/06/12 06:18:29;;;;;;;5.03;3.73;;;;;;;33.24;37.93;98947.41;5031433;28;20756;-68
2023/06/12 06:20:56;;;;;;;5.77;3.70;;;;;;;32.68;38.77;98948.72;5036615;28;20251;-68
2023/06/12 06:23:22;;;;;;;10.53;4.87;;;;;;;32.64;39.19;98947.84;5040822;28;20189;-68
2023/06/12 06:25:50;;;;;;;5.23;4.23;;;;;;;32.46;39.10;98947.38;5030483;28;20213;-67
2023/06/12 06:28:17;;;;;;;5.60;3.93;;;;;;;32.13;40.22;98944.06;5017652;28;20662;-68
2023/06/12 06:30:44;;;;;;;5.47;4.23;;;;;;;32.32;40.34;98940.69;5015927;28;20255;-69
2023/06/12 06:33:11;;;;;;;9.27;4.40;;;;;;;32.71;38.91;98943.31;5036037;28;20810;-67
2023/06/12 06:35:37;;;;;;;7.87;4.17;;;;;;;33.08;38.56;98952.91;5050720;28;20201;-68
2023/06/12 06:38:04;;;;;;;6.83;4.40;;;;;;;32.91;38.33;98947.78;5051271;28;20648;-68
2023/06/12 06:40:31;;;;;;;6.17;4.47;;;;;;;32.91;38.87;98949.75;5022441;28;20224;-69
2023/06/12 06:42:59;;;;;;;4.60;4.20;;;;;;;33.06;38.10;98958.00;5032036;28;20196;-68
2023/06/12 06:45:26;;;;;;;6.77;4.23;;;;;;;33.27;37.73;98950.22;5032580;28;20279;-69
2023/06/12 06:47:53;;;;;;;5.05;4.00;;;;;;;33.23;37.53;98943.84;5031627;28;20193;-69
2023/06/12 06:50:19;;;;;;;4.87;4.47;;;;;;;33.00;38.32;98945.63;5031468;28;20198;-68
2023/06/12 06:52:46;;;;;;;13.85;5.50;;;;;;;32.71;38.21;98948.81;5031594;28;20190;-68
2023/06/12 06:55:13;;;;;;;10.23;4.80;;;;;;;32.77;38.81;98944.66;5034400;28;20189;-68
2023/06/12 06:57:39;;;;;;;5.00;4.00;;;;;;;33.09;37.04;98943.53;5030906;28;20213;-67
2023/06/12 07:00:09;;;;;;;5.13;4.63;;;;;;;33.14;37.31;98936.94;5026050;28;20214;-68
2023/06/12 07:02:36;;;;;;;18.37;4.93;;;;;;;33.25;36.44;98938.78;5011330;28;20197;-68
2023/06/12 07:05:03;;;;;;;4.50;4.10;;;;;;;33.12;36.85;98936.50;5019119;28;20274;-73
2023/06/12 07:07:29;;;;;;;6.30;4.78;;;;;;;32.94;37.00;98936.06;5030916;28;20605;-72
2023/06/12 07:09:56;;;;;;;4.33;3.93;;;;;;;32.10;37.90;98938.50;5030395;28;20623;-72
2023/06/12 07:12:23;;;;;;;5.07;4.40;;;;;;;31.15;40.42;98921.06;5031211;28;20631;-72
2023/06/12 07:14:49;;;;;;;38.67;7.07;;;;;;;31.47;39.60;98922.84;5030444;28;20259;-73
2023/06/12 07:17:17;;;;;;;4.27;3.87;;;;;;;31.70;39.70;98919.25;5031296;28;20247;-75
2023/06/12 07:19:44;;;;;;;9.30;4.60;;;;;;;31.66;38.92;98917.53;5030949;28;20197;-69
2023/06/12 07:22:11;;;;;;;5.07;4.10;;;;;;;31.72;39.24;98919.69;5030477;28;20204;-67
2023/06/12 07:24:37;;;;;;;5.40;4.90;;;;;;;31.80;39.01;98921.53;5030359;28;20721;-68
2023/06/12 07:27:05;;;;;;;6.57;5.37;;;;;;;31.83;39.48;98914.53;5048156;28;20613;-67
2023/06/12 07:29:32;;;;;;;5.13;4.70;;;;;;;31.87;39.71;98913.50;5049816;28;20254;-67
2023/06/12 07:31:59;;;;;;;7.73;5.10;;;;;;;31.47;40.32;98912.66;5049085;28;20193;-66
2023/06/12 07:34:27;;;;;;;10.93;5.37;;;;;;;31.45;39.69;98905.94;5048701;28;20253;-68
2023/06/12 07:36:53;;;;;;;5.80;5.20;;;;;;;31.78;38.84;98921.09;5047871;28;20198;-69
2023/06/12 07:39:20;;;;;;;5.90;4.47;;;;;;;31.64;38.15;98915.16;5028482;28;20220;-67
2023/06/12 07:41:47;;;;;;;7.87;4.80;;;;;;;31.67;39.69;98911.72;5045947;28;20625;-67
2023/06/12 07:44:14;;;;;;;10.43;5.37;;;;;;;31.73;38.79;98912.25;5053287;28;20192;-69
2023/06/12 07:46:42;;;;;;;6.90;4.23;;;;;;;32.23;38.28;98912.53;5049637;28;20278;-68
2023/06/12 07:49:10;;;;;;;8.33;5.37;;;;;;;32.16;37.48;98904.88;5033736;28;20255;-73
2023/06/12 07:51:38;;;;;;;10.87;5.97;;;;;;;32.32;37.17;98916.75;5030903;28;20756;-68
2023/06/12 07:54:05;;;;;;;7.40;4.93;;;;;;;32.44;37.24;98915.88;5031319;28;20198;-71
2023/06/12 07:56:32;;;;;;;6.83;4.50;;;;;;;32.57;36.18;98915.44;5032312;28;20678;-69
2023/06/12 07:59:06;;;;;;;4.47;3.97;;;;;;;32.18;36.36;98902.56;5032371;28;20657;-70
2023/06/12 08:01:34;;;;;;;4.03;3.73;;;;;;;32.45;36.00;98912.78;5038064;28;20217;-69
2023/06/12 08:04:03;;;;;;;4.20;3.73;;;;;;;32.31;36.17;98906.91;5046005;28;20193;-68
2023/06/12 08:06:32;;;;;;;5.50;3.93;;;;;;;32.67;36.88;98909.41;5031526;28;20275;-69
2023/06/12 08:09:01;;;;;;;6.63;4.43;;;;;;;32.48;35.28;98911.25;5030899;28;20193;-72
2023/06/12 08:11:27;;;;;;;4.03;3.63;;;;;;;32.62;35.67;98911.66;5031561;28;20296;-69
2023/06/12 08:13:54;;;;;;;3.53;3.23;;;;;;;32.12;34.84;98897.69;5033924;28;20189;-70
2023/06/12 08:16:23;;;;;;;6.90;3.70;;;;;;;32.15;34.85;98908.81;5034135;28;20221;-69
2023/06/12 08:18:50;;;;;;;6.53;3.43;;;;;;;32.03;34.88;98905.31;5031988;28;20221;-70
2023/06/12 08:21:16;;;;;;;4.60;2.90;;;;;;;31.15;35.84;98902.63;5031175;28;20681;-70
2023/06/12 08:23:43;;;;;;;3.83;3.47;;;;;;;31.47;36.07;98898.94;5032464;28;20197;-69
2023/06/12 08:26:11;;;;;;;3.07;2.87;;;;;;;31.87;35.20;98894.28;5030009;28;20265;-70
2023/06/12 08:28:38;;;;;;;4.20;3.40;;;;;;;31.85;35.67;98899.31;5030503;28;20633;-69
2023/06/12 08:31:05;;;;;;;5.37;3.77;;;;;;;32.05;35.64;98892.81;5027532;28;20255;-68
2023/06/12 08:33:32;;;;;;;5.37;3.90;;;;;;;32.44;35.19;98889.19;5020690;28;20201;-69
2023/06/12 08:35:59;;;;;;;5.93;3.90;;;;;;;32.30;35.50;98897.03;5029862;28;20228;-68
2023/06/12 08:38:26;;;;;;;3.97;3.73;;;;;;;31.86;35.89;98889.94;5030803;28;20201;-69
2023/06/12 08:40:54;;;;;;;4.87;3.97;;;;;;;31.82;37.48;98894.53;5037247;28;20723;-68
2023/06/12 08:43:23;;;;;;;7.70;3.93;;;;;;;32.39;36.79;98885.88;5051416;28;20275;-67
2023/06/12 08:45:52;;;;;;;7.37;4.20;;;;;;;32.64;36.31;98890.88;5049659;28;20607;-69
2023/06/12 08:48:21;;;;;;;4.27;3.87;;;;;;;32.93;36.20;98890.44;5041197;28;20262;-69
2023/06/12 08:50:48;;;;;;;5.30;3.60;;;;;;;33.18;35.30;98891.00;5051387;28;20739;-69
2023/06/12 08:53:15;;;;;;;9.63;3.78;;;;;;;33.45;34.59;98884.56;5031885;28;20197;-67
2023/06/12 08:55:44;;;;;;;6.63;3.60;;;;;;;33.51;34.52;98882.34;5029794;28;20258;-70
2023/06/12 08:58:12;;;;;;;16.48;4.53;;;;;;;33.22;35.39;98878.94;5034409;28;20573;-69
2023/06/12 09:00:40;;;;;;;4.20;3.90;;;;;;;33.49;35.43;98879.13;5030185;28;20204;-69
2023/06/12 09:03:07;;;;;;;7.47;3.87;;;;;;;33.65;35.92;98877.91;5030529;28;20862;-68
2023/06/12 09:05:37;;;;;;;6.30;4.25;;;;;;;33.37;35.04;98885.56;5030740;28;20220;-66
2023/06/12 09:08:04;;;;;;;7.70;3.63;;;;;;;33.67;34.52;98885.81;5031268;28;20193;-67
2023/06/12 09:10:31;;;;;;;4.55;4.15;;;;;;;33.89;35.01;98885.94;5033289;28;20197;-66
2023/06/12 09:12:59;;;;;;;4.85;3.55;;;;;;;33.91;34.61;98874.50;5028143;28;20197;-67
2023/06/12 09:15:26;;;;;;;4.68;3.97;;;;;;;33.77;34.59;98871.47;5030462;28;20263;-68
2023/06/12 09:17:55;;;;;;;7.03;3.53;;;;;;;34.01;34.66;98871.19;5030852;28;20276;-67
2023/06/12 09:20:27;;;;;;;5.82;4.43;;;;;;;33.69;34.55;98875.22;5034734;28;20201;-67
2023/06/12 09:22:54;;;;;;;7.55;3.92;;;;;;;33.69;34.58;98861.44;5050085;28;20197;-67
2023/06/12 09:25:21;;;;;;;3.55;3.33;;;;;;;33.64;34.55;98856.25;5050738;28;20315;-68
2023/06/12 09:27:48;;;;;;;4.18;3.78;;;;;;;33.60;34.50;98858.13;5050138;28;20781;-68
2023/06/12 09:30:15;;;;;;;6.63;4.20;;;;;;;33.55;34.64;98864.69;5050773;28;20189;-66
2023/06/12 09:32:43;;;;;;;6.00;3.83;;;;;;;33.11;34.61;98853.09;5045343;28;20239;-67
2023/06/12 09:35:13;;;;;;;4.38;3.40;;;;;;;33.41;34.43;98860.84;5031764;28;20615;-67
2023/06/12 09:37:40;;;;;;;5.75;3.75;;;;;;;33.45;34.31;98856.22;5031538;28;20727;-67
2023/06/12 09:40:12;;;;;;;3.92;3.63;;;;;;;33.41;34.27;98871.88;5030105;28;20596;-66
2023/06/12 09:42:40;;;;;;;4.03;3.65;;;;;;;33.44;34.69;98849.13;5030014;28;20189;-66
2023/06/12 09:45:12;;;;;;;2.85;2.75;;;;;;;33.58;34.84;98838.38;5028562;28;20201;-67
2023/06/12 09:47:43;;;;;;;3.92;3.63;;;;;;;33.66;34.39;98848.38;5028568;28;20638;-68
2023/06/12 09:50:12;;;;;;;6.07;3.80;;;;;;;33.72;33.03;98833.16;5028980;28;20251;-67
2023/06/12 09:52:41;;;;;;;3.92;3.63;;;;;;;33.94;32.90;98835.19;5027105;28;20197;-67
2023/06/12 09:55:10;;;;;;;8.90;3.10;;;;;;;34.00;32.65;98817.22;5027861;28;20205;-73
2023/06/12 09:57:40;;;;;;;5.93;3.03;;;;;;;33.92;32.36;98827.28;5027187;28;20201;-72
2023/06/12 10:00:11;;;;;;;4.90;3.40;;;;;;;34.06;33.10;98827.56;5019915;28;20243;-71
2023/06/12 10:02:40;;;;;;;10.63;4.00;;;;;;;34.08;33.49;98824.44;5026296;28;20598;-73
2023/06/12 10:05:10;;;;;;;7.40;3.50;;;;;;;33.66;33.85;98834.63;5028720;28;20335;-71
2023/06/12 10:07:42;;;;;;;7.05;3.53;;;;;;;33.40;33.14;98826.22;5028123;28;20663;-72
2023/06/12 10:10:10;;;;;;;5.20;3.13;;;;;;;33.69;33.13;98831.13;5028605;28;20682;-73
2023/06/12 10:12:39;;;;;;;4.18;3.75;;;;;;;33.75;34.05;98826.91;5028684;28;20197;-72
2023/06/12 10:15:08;;;;;;;8.35;4.10;;;;;;;33.77;34.04;98822.66;5029186;28;20266;-71
2023/06/12 10:17:35;;;;;;;3.90;3.60;;;;;;;33.12;34.18;98832.66;5029108;28;20255;-70
2023/06/12 10:20:04;;;;;;;3.70;3.40;;;;;;;32.86;34.69;98818.72;5029188;28;20193;-71
2023/06/12 10:22:31;;;;;;;5.60;3.95;;;;;;;33.10;34.46;98823.19;5027989;28;20271;-68
2023/06/12 10:25:00;;;;;;;5.22;4.05;;;;;;;32.73;35.46;98816.41;5027544;28;20331;-71
2023/06/12 10:27:27;;;;;;;11.43;3.70;;;;;;;32.22;36.90;98823.75;5026927;28;20283;-70
2023/06/12 10:29:59;;;;;;;4.63;3.20;;;;;;;32.20;35.13;98823.31;5029142;28;20197;-73
2023/06/12 10:32:30;;;;;;;4.33;3.80;;;;;;;31.89;36.74;98817.78;5028431;28;20283;-66
2023/06/12 10:34:57;;;;;;;5.17;3.50;;;;;;;31.88;37.06;98813.44;5029914;28;20181;-69
2023/06/12 10:37:25;;;;;;;4.93;4.10;;;;;;;31.78;37.60;98811.22;5029276;28;20232;-69
2023/06/12 10:40:09;;;;;;;6.43;4.40;;;;;;;32.03;36.88;98807.16;5030129;28;20654;-66
2023/06/12 10:42:44;;;;;;;5.30;4.07;;;;;;;32.02;36.87;98805.59;5030100;28;20217;-68
2023/06/12 10:45:17;;;;;;;5.00;3.80;;;;;;;31.76;37.35;98797.00;5030773;28;20548;-66
2023/06/12 10:48:00;;;;;;;6.50;4.20;;;;;;;31.32;39.38;98798.09;5029337;28;20229;-67
2023/06/12 10:50:27;;;;;;;4.13;3.77;;;;;;;31.28;40.04;98794.44;5030151;28;20243;-68
2023/06/12 10:52:55;;;;;;;6.10;4.57;;;;;;;31.23;40.66;98804.88;5027984;28;20201;-67
2023/06/12 10:55:31;;;;;;;10.43;4.30;;;;;;;31.08;40.02;98800.09;5027984;28;20205;-68
2023/06/12 10:58:00;;;;;;;5.67;4.57;;;;;;;30.88;38.67;98799.09;5029724;28;20315;-66
2023/06/12 11:00:30;;;;;;;8.37;3.73;;;;;;;30.55;40.29;98784.72;5028663;28;20190;-65
2023/06/12 11:02:58;;;;;;;4.77;4.37;;;;;;;30.68;39.93;98771.78;5030307;28;20205;-67
2023/06/12 11:05:25;;;;;;;6.57;4.60;;;;;;;30.87;40.33;98785.72;5029413;28;20201;-68
2023/06/12 11:07:55;;;;;;;8.20;4.83;;;;;;;30.86;40.73;98773.94;5029843;28;20193;-69
2023/06/12 11:10:23;;;;;;;10.17;4.53;;;;;;;30.65;41.54;98772.44;5029705;28;20267;-68
2023/06/12 11:12:51;;;;;;;8.23;4.30;;;;;;;30.67;41.50;98776.47;5028950;28;20194;-67
2023/06/12 11:15:18;;;;;;;5.07;4.67;;;;;;;30.60;41.41;98770.75;5033027;28;20623;-68
2023/06/12 11:17:45;;;;;;;6.93;4.53;;;;;;;30.56;41.89;98769.84;5032300;28;20201;-68
2023/06/12 11:20:13;;;;;;;4.80;4.40;;;;;;;30.52;42.11;98763.44;5030329;28;20201;-66
2023/06/12 11:22:40;;;;;;;8.90;4.80;;;;;;;30.46;42.85;98762.06;5033314;28;20712;-69
2023/06/12 11:25:08;;;;;;;7.53;4.43;;;;;;;30.33;42.68;98765.97;5032966;28;20196;-68
2023/06/12 11:27:37;;;;;;;6.13;4.00;;;;;;;30.37;41.76;98761.41;5034069;28;20286;-66
2023/06/12 11:30:11;;;;;;;6.97;4.50;;;;;;;30.47;42.02;98760.94;5034182;28;20197;-67
2023/06/12 11:32:38;;;;;;;5.20;4.43;;;;;;;30.65;41.19;98759.56;5034249;28;20197;-67
2023/06/12 11:35:06;;;;;;;4.37;3.93;;;;;;;30.92;41.30;98758.03;5033431;28;20229;-68